KDUC/DUC METAR and TAF weather

Enter ICAO airport designator
Station Type Date Time Source
KDUC METAR 2021/09/24 02:55 UTC NOAA

KDUC 240255Z AUTO 14008KT 10SM CLR 21/05 A3006 RMK AO2 T02120048


Station Type Date Time Source
KDUC Decoded METAR 2021/09/24 02:55 UTC NOAA

Duncan, Halliburton Field Airport, OK, United States (KDUC) 34-28-15N 097-57-36W
Sep 23, 2021 - 10:55 PM EDT / 2021.09.24 0255 UTC
Wind: from the SE (140 degrees) at 9 MPH (8 KT):0
Visibility: 10 mile(s):0
Sky conditions: clear
Temperature: 70.2 F (21.2 C)
Dew Point: 40.6 F (4.8 C)
Relative Humidity: 34%
Pressure (altimeter): 30.06 in. Hg (1017 hPa)
ob: KDUC 240255Z AUTO 14008KT 10SM CLR 21/05 A3006 RMK AO2 T02120048
cycle: 3

Station Type Date Time Source
KDUC TAF UTC NOAA

Error!

Example: see airport list